Time;durP1;ratioP1;P1;durP2;ratioP2;P2;SDS_P1;SDS_P2;PMS_P1;PMS_P2;Temp;Humidity;BMP_temperature;BMP_pressure;BME280_temperature;BME280_humidity;BME280_pressure;Samples;Min_cycle;Max_cycle;Signal;HPM_P1;HPM_P2
2023/01/17 00:01:40;;;;;;;3.92;0.60;;;;;;;;;;6252392;23;20861;-85
2023/01/17 00:09:55;;;;;;;2.58;0.50;;;;;;;;;;6243821;23;20020;-84
2023/01/17 00:12:23;;;;;;;9.25;0.63;;;;;;;;;;6191613;23;20012;-83
2023/01/17 00:14:49;;;;;;;3.92;0.40;;;;;;;;;;6190275;23;20035;-84
2023/01/17 00:17:15;;;;;;;1.00;0.40;;;;;;;;;;6165678;23;20082;-83
2023/01/17 01:34:26;;;;;;;7.68;1.88;;;;;;;;;;6245235;23;20016;-84
2023/01/17 01:36:52;;;;;;;9.13;0.90;;;;;;;;;;6172958;23;20012;-84
2023/01/17 01:39:18;;;;;;;15.13;3.63;;;;;;;;;;6203714;23;20020;-83
2023/01/17 01:41:44;;;;;;;7.57;1.10;;;;;;;;;;6202137;23;20012;-83
2023/01/17 01:44:29;;;;;;;11.40;1.50;;;;;;;;;;6181264;23;20023;-83
2023/01/17 01:46:55;;;;;;;7.95;1.52;;;;;;;;;;6227897;22;20020;-83
2023/01/17 01:49:23;;;;;;;7.85;1.10;;;;;;;;;;6195667;23;20068;-83
2023/01/17 01:51:55;;;;;;;6.07;0.80;;;;;;;;;;6194919;23;20366;-84
2023/01/17 01:54:25;;;;;;;4.25;0.93;;;;;;;;;;6194158;23;20631;-84
2023/01/17 01:56:52;;;;;;;10.73;0.90;;;;;;;;;;6245208;23;20043;-84
2023/01/17 01:59:19;;;;;;;6.35;0.60;;;;;;;;;;6196070;23;20024;-84
2023/01/17 02:01:47;;;;;;;9.50;1.98;;;;;;;;;;6193684;23;20020;-84
2023/01/17 02:04:14;;;;;;;6.93;1.17;;;;;;;;;;6218404;23;20121;-84
2023/01/17 02:06:45;;;;;;;7.85;0.93;;;;;;;;;;6244862;23;20434;-82
2023/01/17 02:09:13;;;;;;;13.00;1.80;;;;;;;;;;6243381;23;20013;-83
2023/01/17 02:11:40;;;;;;;5.60;0.70;;;;;;;;;;6220031;23;20047;-83
2023/01/17 02:14:06;;;;;;;4.13;0.93;;;;;;;;;;6200408;23;20354;-83
2023/01/17 02:16:35;;;;;;;2.00;0.60;;;;;;;;;;6187125;23;20012;-83
2023/01/17 02:19:13;;;;;;;7.47;0.70;;;;;;;;;;6263186;22;20023;-84
2023/01/17 02:21:43;;;;;;;8.07;0.80;;;;;;;;;;6263168;22;20015;-83
2023/01/17 02:24:28;;;;;;;9.43;0.80;;;;;;;;;;6260988;22;20008;-83
2023/01/17 02:26:54;;;;;;;10.20;1.58;;;;;;;;;;6202229;23;20035;-84
2023/01/17 02:29:39;;;;;;;3.53;0.70;;;;;;;;;;6243528;23;20020;-84
2023/01/17 02:32:17;;;;;;;8.57;1.00;;;;;;;;;;6192835;23;20019;-84
2023/01/17 02:34:50;;;;;;;8.23;1.00;;;;;;;;;;6192435;23;20712;-83
2023/01/17 02:37:34;;;;;;;11.85;0.88;;;;;;;;;;6242132;23;20022;-84
2023/01/17 02:40:10;;;;;;;14.32;1.83;;;;;;;;;;6241954;23;20050;-84
2023/01/17 02:42:45;;;;;;;12.15;1.50;;;;;;;;;;6240446;23;20024;-84
2023/01/17 02:45:16;;;;;;;14.30;1.45;;;;;;;;;;6212368;23;20050;-84
2023/01/17 02:47:43;;;;;;;7.65;1.33;;;;;;;;;;6238228;22;20643;-84
2023/01/17 02:50:11;;;;;;;9.70;1.42;;;;;;;;;;6165199;23;20020;-84
2023/01/17 02:52:46;;;;;;;17.95;2.45;;;;;;;;;;6189107;23;20064;-84
2023/01/17 02:55:25;;;;;;;6.43;1.30;;;;;;;;;;6212558;23;20019;-81
2023/01/17 02:58:01;;;;;;;7.53;1.10;;;;;;;;;;6187699;23;20016;-83
2023/01/17 03:00:54;;;;;;;4.75;1.10;;;;;;;;;;6238305;23;20060;-83
2023/01/17 03:03:20;;;;;;;5.85;1.33;;;;;;;;;;6207488;23;20316;-84
2023/01/17 03:05:49;;;;;;;7.32;1.15;;;;;;;;;;6190101;23;20020;-84
2023/01/17 03:08:16;;;;;;;8.60;1.20;;;;;;;;;;6224419;23;20023;-83
2023/01/17 03:10:42;;;;;;;8.35;1.10;;;;;;;;;;6212536;23;20059;-83
2023/01/17 03:13:08;;;;;;;11.05;1.35;;;;;;;;;;6191153;23;20455;-83
2023/01/17 03:15:35;;;;;;;7.22;1.35;;;;;;;;;;6194836;23;20027;-83
2023/01/17 03:18:05;;;;;;;7.68;1.50;;;;;;;;;;6225834;23;20016;-83
2023/01/17 03:20:31;;;;;;;15.27;3.05;;;;;;;;;;6199326;23;20019;-83
2023/01/17 03:22:57;;;;;;;10.98;1.83;;;;;;;;;;6252273;23;20015;-82
2023/01/17 03:25:23;;;;;;;9.98;1.30;;;;;;;;;;6201942;23;20105;-84
2023/01/17 03:27:49;;;;;;;8.00;1.00;;;;;;;;;;6247262;23;20048;-83
2023/01/17 03:30:16;;;;;;;7.28;1.40;;;;;;;;;;6191610;23;20094;-84
2023/01/17 03:32:42;;;;;;;5.22;1.10;;;;;;;;;;6189810;23;20016;-84
2023/01/17 03:35:08;;;;;;;7.28;1.10;;;;;;;;;;6191662;23;20069;-84
2023/01/17 03:37:34;;;;;;;9.30;1.40;;;;;;;;;;6190955;23;20016;-83
2023/01/17 03:40:00;;;;;;;8.50;1.23;;;;;;;;;;6190891;23;20024;-83
2023/01/17 03:42:26;;;;;;;7.00;1.20;;;;;;;;;;6191173;23;20894;-84
2023/01/17 03:44:52;;;;;;;7.03;1.88;;;;;;;;;;6166080;23;20047;-84
2023/01/17 03:47:19;;;;;;;12.05;1.52;;;;;;;;;;6190857;23;20442;-84
2023/01/17 03:49:45;;;;;;;5.72;0.90;;;;;;;;;;6241556;23;20016;-84
2023/01/17 03:52:11;;;;;;;10.70;1.70;;;;;;;;;;6146694;23;20073;-84
2023/01/17 03:54:37;;;;;;;10.18;1.13;;;;;;;;;;6185035;23;20741;-84
2023/01/17 03:57:03;;;;;;;12.93;2.10;;;;;;;;;;6162909;23;20020;-84
2023/01/17 03:59:29;;;;;;;5.03;0.90;;;;;;;;;;6188381;23;20047;-84
2023/01/17 04:01:55;;;;;;;10.45;2.35;;;;;;;;;;6165828;23;20020;-83
2023/01/17 04:04:21;;;;;;;14.15;2.15;;;;;;;;;;6150234;23;20032;-83
2023/01/17 04:06:47;;;;;;;4.18;0.80;;;;;;;;;;6202795;23;20055;-83
2023/01/17 04:09:13;;;;;;;7.05;1.40;;;;;;;;;;6177638;23;20021;-82
2023/01/17 04:11:39;;;;;;;6.80;1.40;;;;;;;;;;6179662;23;20023;-83
2023/01/17 04:14:06;;;;;;;3.05;0.80;;;;;;;;;;6175041;23;20442;-83
2023/01/17 04:16:32;;;;;;;5.10;0.65;;;;;;;;;;6162734;23;20091;-84
2023/01/17 04:18:58;;;;;;;2.92;0.50;;;;;;;;;;6161605;23;20024;-84
2023/01/17 04:21:24;;;;;;;4.07;0.85;;;;;;;;;;6185951;23;20017;-84
2023/01/17 04:23:50;;;;;;;4.75;0.70;;;;;;;;;;6163361;23;20012;-83
2023/01/17 04:26:16;;;;;;;10.55;1.27;;;;;;;;;;6161171;23;20017;-83
2023/01/17 04:28:42;;;;;;;7.18;0.98;;;;;;;;;;6187886;23;20075;-83
2023/01/17 04:31:12;;;;;;;11.70;1.65;;;;;;;;;;6139910;23;20025;-83
2023/01/17 04:33:38;;;;;;;7.60;1.15;;;;;;;;;;6187389;23;20020;-83
2023/01/17 04:36:05;;;;;;;8.10;1.25;;;;;;;;;;6162651;23;20098;-82
2023/01/17 04:38:31;;;;;;;16.23;2.42;;;;;;;;;;6187763;23;20473;-82
2023/01/17 04:40:57;;;;;;;9.23;1.65;;;;;;;;;;6212288;23;20031;-83
2023/01/17 04:43:23;;;;;;;12.13;1.30;;;;;;;;;;6136540;23;20021;-83
2023/01/17 04:45:54;;;;;;;12.10;1.67;;;;;;;;;;6186091;23;20040;-84
2023/01/17 04:48:20;;;;;;;5.78;1.15;;;;;;;;;;6188367;23;20552;-83
2023/01/17 04:50:46;;;;;;;16.55;1.50;;;;;;;;;;6217638;23;20016;-83
2023/01/17 04:53:12;;;;;;;8.82;1.77;;;;;;;;;;6251498;23;20050;-84
2023/01/17 04:55:38;;;;;;;13.10;2.42;;;;;;;;;;6249989;23;20170;-84
2023/01/17 04:58:04;;;;;;;8.38;1.27;;;;;;;;;;6225712;23;20093;-83
2023/01/17 05:00:30;;;;;;;8.38;1.27;;;;;;;;;;6197434;23;20067;-85
2023/01/17 05:02:56;;;;;;;6.63;1.17;;;;;;;;;;6192195;23;20016;-82
2023/01/17 05:05:22;;;;;;;8.05;2.95;;;;;;;;;;6193102;23;20024;-84
2023/01/17 05:07:53;;;;;;;8.85;1.10;;;;;;;;;;6167922;23;20024;-85
2023/01/17 05:10:19;;;;;;;5.50;0.77;;;;;;;;;;6218084;23;20435;-85
2023/01/17 05:12:52;;;;;;;10.57;1.50;;;;;;;;;;6194129;23;20016;-85
2023/01/17 05:15:18;;;;;;;6.53;1.23;;;;;;;;;;6244466;23;20056;-84
2023/01/17 05:17:44;;;;;;;4.32;1.25;;;;;;;;;;6244888;22;20027;-84
2023/01/17 05:20:10;;;;;;;9.30;1.20;;;;;;;;;;6219705;23;20056;-84
2023/01/17 05:22:36;;;;;;;16.70;1.40;;;;;;;;;;6194527;23;20020;-85
2023/01/17 05:25:03;;;;;;;4.95;0.95;;;;;;;;;;6170082;23;20067;-84
2023/01/17 05:27:29;;;;;;;2.67;0.50;;;;;;;;;;6244057;23;20051;-85
2023/01/17 05:29:55;;;;;;;3.83;0.80;;;;;;;;;;6194290;23;20549;-84
2023/01/17 05:32:21;;;;;;;5.22;0.95;;;;;;;;;;6169713;23;20023;-85
2023/01/17 05:34:47;;;;;;;6.75;1.10;;;;;;;;;;6194898;23;20016;-85
2023/01/17 05:37:13;;;;;;;4.57;0.77;;;;;;;;;;6171320;23;20019;-84
2023/01/17 05:39:39;;;;;;;10.25;1.17;;;;;;;;;;6247448;23;20016;-83
2023/01/17 05:42:05;;;;;;;7.43;0.80;;;;;;;;;;6178036;23;20071;-84
2023/01/17 05:44:31;;;;;;;3.60;0.70;;;;;;;;;;6263694;23;20038;-83
2023/01/17 05:46:57;;;;;;;3.70;0.80;;;;;;;;;;6261458;22;20038;-85
2023/01/17 05:49:24;;;;;;;2.60;0.65;;;;;;;;;;6212292;22;20370;-85
2023/01/17 05:51:50;;;;;;;4.38;0.90;;;;;;;;;;6211260;23;20008;-85
2023/01/17 05:54:16;;;;;;;2.15;1.05;;;;;;;;;;6194781;23;20044;-85
2023/01/17 05:56:42;;;;;;;15.05;1.20;;;;;;;;;;6193437;23;20012;-85
2023/01/17 05:59:10;;;;;;;9.52;0.95;;;;;;;;;;6219799;23;20047;-85
2023/01/17 06:01:36;;;;;;;7.13;1.00;;;;;;;;;;6194142;23;20753;-85
2023/01/17 06:04:02;;;;;;;5.45;1.00;;;;;;;;;;6195516;23;20019;-85
2023/01/17 06:06:28;;;;;;;7.82;1.00;;;;;;;;;;6198044;23;20027;-85
2023/01/17 06:08:54;;;;;;;2.97;0.70;;;;;;;;;;6203552;23;20068;-85
2023/01/17 06:11:20;;;;;;;14.10;1.17;;;;;;;;;;6203264;23;20017;-85
2023/01/17 06:13:47;;;;;;;5.13;0.77;;;;;;;;;;6199908;23;20008;-85
2023/01/17 06:16:13;;;;;;;7.82;0.90;;;;;;;;;;6196748;23;20105;-84
2023/01/17 06:18:40;;;;;;;6.13;0.70;;;;;;;;;;6196286;23;20024;-84
2023/01/17 06:21:06;;;;;;;3.67;0.80;;;;;;;;;;6172958;23;20121;-85
2023/01/17 06:23:32;;;;;;;4.50;0.55;;;;;;;;;;6177066;23;20072;-85
2023/01/17 06:26:01;;;;;;;3.72;0.82;;;;;;;;;;6253081;23;20016;-85
2023/01/17 06:28:27;;;;;;;3.33;0.80;;;;;;;;;;6197704;23;20031;-84
2023/01/17 06:30:53;;;;;;;5.47;0.73;;;;;;;;;;6244740;23;20016;-84
2023/01/17 06:33:19;;;;;;;5.65;1.92;;;;;;;;;;6194963;23;20046;-84
2023/01/17 06:35:49;;;;;;;5.97;1.08;;;;;;;;;;6244667;23;20013;-85
2023/01/17 06:38:16;;;;;;;7.60;0.90;;;;;;;;;;6245763;23;20027;-86
2023/01/17 06:40:42;;;;;;;7.32;1.10;;;;;;;;;;6244614;23;20019;-84
2023/01/17 06:43:08;;;;;;;4.15;1.20;;;;;;;;;;6194632;23;20016;-85
2023/01/17 06:45:34;;;;;;;10.02;1.88;;;;;;;;;;6195663;23;20027;-85
2023/01/17 06:48:02;;;;;;;7.82;1.17;;;;;;;;;;6169364;23;20020;-85
2023/01/17 06:50:29;;;;;;;5.47;0.70;;;;;;;;;;6219511;23;20109;-85
2023/01/17 06:52:56;;;;;;;6.97;0.95;;;;;;;;;;6242036;23;20016;-86
2023/01/17 06:55:22;;;;;;;5.35;1.08;;;;;;;;;;6194535;23;20020;-84
2023/01/17 06:57:49;;;;;;;5.35;0.68;;;;;;;;;;6244504;23;20020;-84
2023/01/17 07:00:16;;;;;;;8.60;1.13;;;;;;;;;;6190477;23;20016;-84
2023/01/17 07:02:46;;;;;;;6.05;1.10;;;;;;;;;;6189746;23;20020;-84
2023/01/17 07:05:12;;;;;;;8.77;0.98;;;;;;;;;;6167523;23;20016;-82
2023/01/17 07:07:38;;;;;;;3.45;0.73;;;;;;;;;;6191708;23;20020;-82
2023/01/17 07:10:04;;;;;;;13.75;1.02;;;;;;;;;;6165457;23;20086;-83
2023/01/17 07:12:31;;;;;;;11.85;2.08;;;;;;;;;;6218325;23;20016;-83
2023/01/17 07:14:57;;;;;;;10.95;1.20;;;;;;;;;;6217995;23;20031;-82
2023/01/17 07:17:23;;;;;;;6.38;0.93;;;;;;;;;;6168982;23;20438;-82
2023/01/17 07:19:49;;;;;;;4.88;1.00;;;;;;;;;;6199953;23;20016;-83
2023/01/17 07:22:15;;;;;;;6.47;0.85;;;;;;;;;;6258230;23;20106;-84
2023/01/17 07:24:41;;;;;;;9.70;1.23;;;;;;;;;;6210666;22;20004;-84
2023/01/17 07:27:07;;;;;;;9.70;1.20;;;;;;;;;;6187931;22;20004;-84
2023/01/17 07:29:33;;;;;;;5.43;1.35;;;;;;;;;;6212911;23;20064;-84
2023/01/17 07:32:02;;;;;;;13.23;2.03;;;;;;;;;;6197455;23;20012;-84
2023/01/17 07:34:28;;;;;;;7.03;1.40;;;;;;;;;;6172515;23;20016;-84
2023/01/17 07:36:54;;;;;;;9.02;1.75;;;;;;;;;;6172410;23;20016;-84
2023/01/17 07:39:22;;;;;;;9.15;1.60;;;;;;;;;;6196709;23;20454;-84
2023/01/17 07:41:49;;;;;;;4.38;1.50;;;;;;;;;;6196663;23;20027;-86
2023/01/17 07:44:15;;;;;;;6.57;1.48;;;;;;;;;;6246105;23;20016;-85
2023/01/17 07:46:41;;;;;;;3.97;0.80;;;;;;;;;;6195682;23;20022;-85
2023/01/17 07:49:07;;;;;;;2.38;0.80;;;;;;;;;;6162872;23;20781;-86
2023/01/17 07:51:33;;;;;;;6.07;0.93;;;;;;;;;;6159933;23;20023;-83
2023/01/17 07:53:59;;;;;;;5.43;0.80;;;;;;;;;;6238404;23;20019;-85
2023/01/17 07:56:25;;;;;;;7.78;0.80;;;;;;;;;;6191431;23;20453;-83
2023/01/17 07:58:51;;;;;;;4.50;0.77;;;;;;;;;;6189706;23;20012;-83
2023/01/17 08:01:18;;;;;;;3.03;0.93;;;;;;;;;;6241335;23;20024;-85
2023/01/17 08:03:44;;;;;;;4.55;0.85;;;;;;;;;;6243360;23;20027;-85
2023/01/17 08:06:23;;;;;;;3.47;0.80;;;;;;;;;;6162165;23;20103;-84
2023/01/17 08:08:49;;;;;;;4.10;0.77;;;;;;;;;;6234874;23;20046;-85
2023/01/17 08:11:15;;;;;;;1.67;0.43;;;;;;;;;;6184637;23;20020;-85
2023/01/17 08:13:41;;;;;;;5.55;0.90;;;;;;;;;;6184976;23;20016;-85
2023/01/17 08:16:17;;;;;;;2.25;0.80;;;;;;;;;;6235946;23;20012;-84
2023/01/17 08:18:43;;;;;;;6.80;1.75;;;;;;;;;;6185489;23;20043;-83
2023/01/17 08:21:15;;;;;;;6.95;1.15;;;;;;;;;;6185111;23;20050;-82
2023/01/17 08:23:42;;;;;;;3.85;0.60;;;;;;;;;;6185296;23;20170;-84
2023/01/17 08:26:08;;;;;;;5.70;0.60;;;;;;;;;;6185167;23;20042;-84
2023/01/17 08:28:34;;;;;;;3.70;0.75;;;;;;;;;;6209962;23;20066;-83
2023/01/17 08:31:10;;;;;;;13.15;1.17;;;;;;;;;;6185387;23;20012;-84
2023/01/17 08:33:36;;;;;;;5.50;0.90;;;;;;;;;;6234843;23;20012;-84
2023/01/17 08:36:02;;;;;;;12.63;1.30;;;;;;;;;;6235560;23;20325;-83
2023/01/17 08:38:28;;;;;;;1.65;0.57;;;;;;;;;;6186436;23;20103;-81
2023/01/17 08:40:54;;;;;;;1.25;0.30;;;;;;;;;;6185815;23;20039;-82
2023/01/17 08:43:20;;;;;;;1.75;0.40;;;;;;;;;;6163673;23;20342;-82
2023/01/17 08:45:48;;;;;;;7.47;0.50;;;;;;;;;;6163662;23;20023;-81
2023/01/17 08:48:14;;;;;;;8.77;0.85;;;;;;;;;;6189557;23;20080;-84
2023/01/17 08:50:40;;;;;;;9.00;1.25;;;;;;;;;;6236227;23;20020;-83
2023/01/17 08:53:06;;;;;;;2.80;0.63;;;;;;;;;;6186698;23;20031;-85
2023/01/17 08:55:36;;;;;;;4.30;0.60;;;;;;;;;;6187567;23;20116;-84
2023/01/17 08:58:02;;;;;;;7.03;0.95;;;;;;;;;;6191420;23;20066;-84
2023/01/17 09:00:28;;;;;;;2.53;0.63;;;;;;;;;;6169027;23;20070;-83
2023/01/17 09:02:55;;;;;;;2.00;0.65;;;;;;;;;;6190613;23;20083;-84
2023/01/17 09:05:21;;;;;;;2.70;0.60;;;;;;;;;;6258250;22;20035;-83
2023/01/17 09:07:47;;;;;;;3.72;0.60;;;;;;;;;;6206297;23;20024;-84
2023/01/17 09:10:13;;;;;;;5.53;0.63;;;;;;;;;;6237641;23;20016;-83
2023/01/17 09:12:39;;;;;;;2.20;0.50;;;;;;;;;;6160301;23;20023;-83
2023/01/17 09:15:06;;;;;;;3.95;0.60;;;;;;;;;;6234820;23;20043;-82
2023/01/17 09:17:32;;;;;;;3.42;0.80;;;;;;;;;;6185212;23;20087;-84
2023/01/17 09:19:58;;;;;;;3.05;0.80;;;;;;;;;;6237705;23;20019;-85
2023/01/17 09:22:25;;;;;;;4.13;0.52;;;;;;;;;;6187245;23;20035;-82
2023/01/17 09:24:51;;;;;;;9.00;1.05;;;;;;;;;;6233012;23;20024;-83
2023/01/17 09:27:17;;;;;;;7.13;0.75;;;;;;;;;;6169139;23;20142;-83
2023/01/17 09:29:43;;;;;;;5.28;0.52;;;;;;;;;;6192356;23;20012;-83
2023/01/17 09:32:09;;;;;;;2.10;0.50;;;;;;;;;;6243179;23;20020;-84
2023/01/17 09:34:35;;;;;;;4.47;0.60;;;;;;;;;;6193068;23;20027;-84
2023/01/17 09:37:03;;;;;;;8.60;0.70;;;;;;;;;;6238113;23;20740;-84
2023/01/17 09:39:29;;;;;;;4.63;0.95;;;;;;;;;;6236275;23;20030;-84
2023/01/17 09:41:55;;;;;;;4.32;0.70;;;;;;;;;;6185939;23;20016;-85
2023/01/17 09:44:37;;;;;;;10.90;0.98;;;;;;;;;;6237478;23;20047;-85
2023/01/17 09:47:30;;;;;;;5.47;0.82;;;;;;;;;;6186233;22;20016;-85
2023/01/17 09:49:59;;;;;;;7.20;1.58;;;;;;;;;;6204644;23;20039;-85
2023/01/17 09:52:29;;;;;;;5.00;1.13;;;;;;;;;;6186956;23;20027;-85
2023/01/17 09:54:56;;;;;;;4.65;0.90;;;;;;;;;;6188605;23;20012;-85
2023/01/17 09:57:25;;;;;;;8.10;0.88;;;;;;;;;;6239567;23;20008;-84
2023/01/17 10:00:04;;;;;;;9.02;1.27;;;;;;;;;;6242453;23;20016;-84
2023/01/17 10:02:33;;;;;;;5.45;0.90;;;;;;;;;;6187989;23;20020;-86
2023/01/17 10:05:03;;;;;;;8.60;1.13;;;;;;;;;;6187097;23;20020;-85
2023/01/17 10:07:38;;;;;;;6.03;1.08;;;;;;;;;;6191204;23;20103;-85
2023/01/17 10:10:04;;;;;;;6.75;1.20;;;;;;;;;;6241741;23;20378;-84
2023/01/17 10:12:45;;;;;;;5.13;0.93;;;;;;;;;;6238685;23;20091;-85
2023/01/17 10:15:14;;;;;;;2.03;0.60;;;;;;;;;;6239558;23;20016;-86
2023/01/17 10:17:58;;;;;;;5.43;0.73;;;;;;;;;;6194263;23;20016;-86
2023/01/17 10:20:48;;;;;;;2.42;0.57;;;;;;;;;;6217637;23;20387;-86
2023/01/17 10:23:41;;;;;;;17.38;1.15;;;;;;;;;;6156378;23;20079;-81
2023/01/17 10:26:15;;;;;;;2.97;0.40;;;;;;;;;;6212526;23;20046;-85
2023/01/17 10:28:45;;;;;;;0.70;0.30;;;;;;;;;;6240546;22;20012;-87
2023/01/17 10:31:19;;;;;;;1.50;0.40;;;;;;;;;;6187229;23;20428;-87
2023/01/17 10:33:51;;;;;;;3.55;0.43;;;;;;;;;;6188428;23;20442;-88
2023/01/17 10:36:40;;;;;;;1.90;0.40;;;;;;;;;;6193145;23;20023;-88
2023/01/17 10:39:20;;;;;;;3.25;0.60;;;;;;;;;;6219771;23;20091;-77
2023/01/17 10:41:54;;;;;;;4.35;0.47;;;;;;;;;;6193251;23;20035;-76
2023/01/17 10:44:24;;;;;;;2.10;0.57;;;;;;;;;;6250027;23;20310;-79
2023/01/17 10:46:53;;;;;;;0.70;0.40;;;;;;;;;;6228240;23;20020;-79
2023/01/17 10:49:21;;;;;;;3.83;0.52;;;;;;;;;;6180844;23;20020;-79
2023/01/17 10:51:58;;;;;;;0.63;0.45;;;;;;;;;;6179310;23;20099;-80
2023/01/17 10:55:07;;;;;;;1.48;0.30;;;;;;;;;;6181352;23;20158;-80
2023/01/17 10:57:43;;;;;;;2.58;0.70;;;;;;;;;;6082382;23;20097;-79
2023/01/17 11:00:13;;;;;;;5.97;0.63;;;;;;;;;;6188985;23;20777;-80
2023/01/17 11:02:41;;;;;;;3.17;0.43;;;;;;;;;;6180111;23;20509;-79
2023/01/17 11:05:17;;;;;;;5.35;0.80;;;;;;;;;;6179979;23;20071;-79
2023/01/17 11:07:56;;;;;;;1.02;0.32;;;;;;;;;;6229936;23;20050;-80
2023/01/17 11:10:35;;;;;;;0.50;0.38;;;;;;;;;;6178881;23;20016;-79
2023/01/17 11:13:02;;;;;;;1.73;0.50;;;;;;;;;;6179720;23;20023;-80
2023/01/17 11:15:30;;;;;;;3.10;0.63;;;;;;;;;;6179626;23;20018;-80
2023/01/17 11:18:01;;;;;;;3.30;0.75;;;;;;;;;;6180163;23;20020;-80
2023/01/17 11:20:35;;;;;;;2.97;0.52;;;;;;;;;;6200783;23;20027;-79
2023/01/17 11:23:15;;;;;;;1.90;0.55;;;;;;;;;;6204255;23;20027;-80
2023/01/17 11:25:48;;;;;;;1.40;0.57;;;;;;;;;;6181718;23;20346;-78
2023/01/17 11:28:20;;;;;;;1.30;0.60;;;;;;;;;;6184353;23;20016;-79
2023/01/17 11:30:52;;;;;;;3.53;0.90;;;;;;;;;;6182457;23;20016;-78
2023/01/17 11:33:30;;;;;;;3.55;0.68;;;;;;;;;;6183825;23;20102;-79
2023/01/17 11:35:56;;;;;;;2.90;0.50;;;;;;;;;;6232683;23;20053;-78
2023/01/17 11:38:25;;;;;;;4.45;0.40;;;;;;;;;;6232708;23;20016;-78
2023/01/17 11:41:18;;;;;;;2.00;0.50;;;;;;;;;;6231903;23;20020;-78
2023/01/17 11:43:48;;;;;;;2.25;0.50;;;;;;;;;;6205311;23;20183;-78
2023/01/17 11:46:19;;;;;;;3.88;0.60;;;;;;;;;;6232230;23;20070;-78
2023/01/17 11:48:55;;;;;;;0.70;0.70;;;;;;;;;;6233762;23;20403;-78
2023/01/17 11:51:27;;;;;;;2.30;0.75;;;;;;;;;;6183774;23;20027;-79
2023/01/17 11:54:02;;;;;;;0.73;0.35;;;;;;;;;;6180392;23;20035;-78
2023/01/17 11:56:32;;;;;;;1.60;0.40;;;;;;;;;;6234550;23;20013;-79
2023/01/17 11:59:17;;;;;;;3.20;0.65;;;;;;;;;;6232206;22;20090;-79
2023/01/17 12:02:09;;;;;;;2.83;0.98;;;;;;;;;;6232337;23;20529;-78
2023/01/17 12:04:42;;;;;;;2.45;0.50;;;;;;;;;;6202696;23;20020;-78
2023/01/17 12:07:27;;;;;;;3.25;0.65;;;;;;;;;;6185656;23;20012;-78
2023/01/17 12:10:12;;;;;;;3.22;0.65;;;;;;;;;;6188901;23;20020;-78
2023/01/17 12:15:50;;;;;;;3.40;0.65;;;;;;;;;;6242572;23;20051;-77
2023/01/17 12:18:16;;;;;;;2.15;0.70;;;;;;;;;;6219713;23;20093;-78
2023/01/17 12:20:45;;;;;;;5.50;0.75;;;;;;;;;;6198020;23;20012;-78
2023/01/17 12:23:35;;;;;;;5.13;0.90;;;;;;;;;;6192838;23;20339;-78
2023/01/17 12:26:18;;;;;;;5.38;1.33;;;;;;;;;;6230584;23;20319;-78
2023/01/17 12:29:03;;;;;;;6.13;1.65;;;;;;;;;;6208595;23;20015;-78
2023/01/17 12:31:33;;;;;;;2.88;1.00;;;;;;;;;;6237696;23;20023;-78
2023/01/17 12:34:18;;;;;;;2.67;0.73;;;;;;;;;;6209296;23;20034;-78
2023/01/17 12:36:51;;;;;;;7.70;2.20;;;;;;;;;;6181529;23;20016;-79
2023/01/17 12:39:19;;;;;;;3.15;0.75;;;;;;;;;;6181320;23;20035;-78
2023/01/17 12:41:48;;;;;;;2.53;0.70;;;;;;;;;;6178515;23;20016;-77
2023/01/17 12:44:15;;;;;;;4.28;0.88;;;;;;;;;;6180016;23;20012;-77
2023/01/17 12:46:58;;;;;;;4.43;1.13;;;;;;;;;;6178812;23;20019;-78
2023/01/17 12:49:24;;;;;;;2.42;0.60;;;;;;;;;;6229068;23;20074;-78
2023/01/17 12:51:58;;;;;;;3.22;1.13;;;;;;;;;;6181119;23;20016;-77
2023/01/17 12:54:52;;;;;;;4.30;0.98;;;;;;;;;;6230067;23;20094;-78
2023/01/17 12:57:23;;;;;;;1.20;0.60;;;;;;;;;;6197551;23;20019;-73
2023/01/17 12:59:49;;;;;;;3.47;1.00;;;;;;;;;;6174636;23;20024;-73
2023/01/17 13:02:35;;;;;;;3.50;0.90;;;;;;;;;;6175155;23;20027;-73
2023/01/17 13:05:14;;;;;;;4.28;0.77;;;;;;;;;;6227594;23;20035;-73
2023/01/17 13:07:59;;;;;;;5.80;1.00;;;;;;;;;;6202393;23;20108;-73
2023/01/17 13:10:30;;;;;;;6.85;1.10;;;;;;;;;;6226899;23;20016;-73
2023/01/17 13:12:59;;;;;;;13.15;1.95;;;;;;;;;;6201720;23;20067;-73
2023/01/17 13:15:27;;;;;;;4.93;0.90;;;;;;;;;;6228403;23;20058;-73
2023/01/17 13:18:03;;;;;;;4.15;1.00;;;;;;;;;;6226888;23;20020;-73
2023/01/17 13:20:44;;;;;;;4.15;0.98;;;;;;;;;;6226072;23;20063;-73
2023/01/17 13:23:31;;;;;;;3.30;0.80;;;;;;;;;;6226126;23;20122;-72
2023/01/17 13:25:58;;;;;;;3.28;1.13;;;;;;;;;;6225997;23;20023;-72
2023/01/17 13:28:27;;;;;;;2.78;0.93;;;;;;;;;;6226536;22;20091;-72
2023/01/17 13:31:08;;;;;;;3.75;1.10;;;;;;;;;;6227264;23;20016;-73
2023/01/17 13:33:40;;;;;;;5.22;0.93;;;;;;;;;;6227077;23;20044;-72
2023/01/17 13:36:18;;;;;;;6.32;0.85;;;;;;;;;;6199665;23;20012;-72
2023/01/17 13:38:53;;;;;;;7.40;2.35;;;;;;;;;;6224169;23;20508;-72
2023/01/17 13:41:38;;;;;;;2.88;0.80;;;;;;;;;;6179022;23;20450;-76
2023/01/17 13:46:59;;;;;;;2.10;0.60;;;;;;;;;;6230382;23;20024;-76
2023/01/17 13:49:25;;;;;;;2.90;0.90;;;;;;;;;;6179124;23;20731;-77
2023/01/17 13:52:11;;;;;;;2.90;0.75;;;;;;;;;;6179877;23;20016;-76
2023/01/17 13:54:43;;;;;;;1.35;0.70;;;;;;;;;;6180107;23;20789;-76
2023/01/17 13:57:25;;;;;;;2.05;0.70;;;;;;;;;;6180807;23;20044;-76
2023/01/17 13:59:55;;;;;;;1.70;0.68;;;;;;;;;;6181619;23;20020;-76
2023/01/17 14:02:37;;;;;;;4.93;1.25;;;;;;;;;;6183539;23;20016;-77
2023/01/17 14:05:10;;;;;;;7.40;1.45;;;;;;;;;;6215310;23;20031;-77
2023/01/17 14:07:46;;;;;;;1.83;0.90;;;;;;;;;;6249099;23;20426;-77
2023/01/17 14:10:31;;;;;;;7.43;1.10;;;;;;;;;;6223846;23;20008;-77
2023/01/17 14:12:58;;;;;;;3.72;0.80;;;;;;;;;;6213476;23;20027;-78
2023/01/17 14:15:29;;;;;;;3.92;0.70;;;;;;;;;;6207128;23;20012;-76
2023/01/17 14:17:56;;;;;;;3.83;1.55;;;;;;;;;;6200287;23;20023;-77
2023/01/17 14:20:26;;;;;;;2.42;0.77;;;;;;;;;;6247780;23;20067;-76
2023/01/17 14:22:52;;;;;;;3.88;0.80;;;;;;;;;;6205954;23;20023;-77
2023/01/17 14:25:28;;;;;;;0.80;0.68;;;;;;;;;;6231506;23;20445;-76
2023/01/17 14:27:58;;;;;;;4.22;0.95;;;;;;;;;;6181285;22;20562;-78
2023/01/17 14:30:27;;;;;;;3.35;0.93;;;;;;;;;;6182030;23;20020;-77
2023/01/17 14:33:07;;;;;;;3.70;1.50;;;;;;;;;;6232669;23;20012;-78
2023/01/17 14:35:41;;;;;;;4.40;1.02;;;;;;;;;;6182671;23;20113;-78
2023/01/17 14:38:26;;;;;;;3.88;1.10;;;;;;;;;;6232339;23;20027;-76
2023/01/17 14:40:54;;;;;;;3.88;0.93;;;;;;;;;;6182898;23;20090;-75
2023/01/17 14:43:21;;;;;;;2.17;0.90;;;;;;;;;;6207402;23;20012;-77
2023/01/17 14:45:47;;;;;;;2.80;0.88;;;;;;;;;;6233245;23;20016;-76
2023/01/17 14:48:22;;;;;;;5.32;0.90;;;;;;;;;;6233755;23;20043;-77
2023/01/17 14:50:49;;;;;;;3.65;0.88;;;;;;;;;;6184180;23;20431;-76
2023/01/17 14:53:19;;;;;;;5.60;0.70;;;;;;;;;;6234366;23;20019;-76
2023/01/17 14:55:56;;;;;;;5.32;0.93;;;;;;;;;;6182452;23;20044;-76
2023/01/17 14:58:22;;;;;;;3.33;0.80;;;;;;;;;;6232319;22;20112;-76
2023/01/17 15:00:50;;;;;;;7.72;0.95;;;;;;;;;;6232879;23;20042;-76
2023/01/17 15:03:17;;;;;;;4.13;1.15;;;;;;;;;;6176354;23;20535;-75
2023/01/17 15:05:44;;;;;;;3.40;1.20;;;;;;;;;;6204212;23;20043;-76
2023/01/17 15:08:12;;;;;;;4.65;1.08;;;;;;;;;;6231300;23;20020;-77
2023/01/17 15:10:44;;;;;;;6.22;1.05;;;;;;;;;;6229076;23;20405;-76
2023/01/17 15:13:10;;;;;;;8.65;1.10;;;;;;;;;;6178629;23;20426;-77
2023/01/17 15:15:38;;;;;;;8.80;2.13;;;;;;;;;;6177137;23;20525;-77
2023/01/17 15:18:13;;;;;;;1.92;1.00;;;;;;;;;;6202583;23;20016;-77
2023/01/17 15:20:45;;;;;;;3.08;1.15;;;;;;;;;;6177131;23;20016;-77
2023/01/17 15:23:21;;;;;;;2.55;0.73;;;;;;;;;;6176073;23;20027;-77
2023/01/17 15:25:49;;;;;;;4.47;0.80;;;;;;;;;;6230734;23;20027;-75
2023/01/17 15:31:38;;;;;;;1.75;0.85;;;;;;;;;;6209828;23;20271;-76
2023/01/17 15:34:16;;;;;;;4.05;0.80;;;;;;;;;;6175243;23;20043;-75
2023/01/17 15:36:42;;;;;;;3.47;0.82;;;;;;;;;;6177842;23;20047;-76
2023/01/17 15:39:18;;;;;;;6.00;0.95;;;;;;;;;;6153329;23;20031;-76
2023/01/17 15:41:46;;;;;;;4.38;0.80;;;;;;;;;;6178972;23;20591;-76
2023/01/17 15:44:23;;;;;;;2.90;0.77;;;;;;;;;;6203514;23;20056;-77
2023/01/17 15:46:49;;;;;;;5.55;0.70;;;;;;;;;;6228483;23;20019;-76
2023/01/17 15:49:15;;;;;;;6.00;2.40;;;;;;;;;;6178269;23;20027;-77
2023/01/17 15:51:45;;;;;;;2.13;0.88;;;;;;;;;;6251778;23;20043;-77
2023/01/17 15:54:25;;;;;;;2.42;0.60;;;;;;;;;;6252887;23;20115;-75
2023/01/17 15:57:04;;;;;;;6.22;0.63;;;;;;;;;;6236086;23;20091;-75
2023/01/17 15:59:46;;;;;;;10.13;1.33;;;;;;;;;;6230195;22;20393;-76
2023/01/17 16:02:31;;;;;;;5.95;1.00;;;;;;;;;;6204888;23;20142;-77
2023/01/17 16:04:59;;;;;;;1.55;0.95;;;;;;;;;;6227875;23;20022;-77
2023/01/17 16:07:30;;;;;;;2.53;1.33;;;;;;;;;;6231123;23;20074;-76
2023/01/17 16:10:02;;;;;;;5.15;1.83;;;;;;;;;;6181398;23;20523;-76
2023/01/17 16:12:28;;;;;;;2.67;0.90;;;;;;;;;;6179388;23;20011;-76
2023/01/17 16:14:54;;;;;;;6.07;0.90;;;;;;;;;;6229411;23;20352;-76
2023/01/17 16:17:21;;;;;;;4.15;0.80;;;;;;;;;;6184104;23;20027;-78
2023/01/17 16:19:47;;;;;;;5.72;0.93;;;;;;;;;;6177383;23;20095;-76
2023/01/17 16:22:13;;;;;;;7.05;1.40;;;;;;;;;;6174054;23;20020;-77
2023/01/17 16:24:40;;;;;;;4.03;0.90;;;;;;;;;;6174290;23;20752;-77
2023/01/17 16:27:08;;;;;;;3.83;1.42;;;;;;;;;;6176554;23;20026;-78
2023/01/17 16:29:39;;;;;;;1.88;0.95;;;;;;;;;;6197473;23;20058;-78